Time;durP1;ratioP1;P1;durP2;ratioP2;P2;SDS_P1;SDS_P2;PMS_P1;PMS_P2;Temp;Humidity;BMP_temperature;BMP_pressure;BME280_temperature;BME280_humidity;BME280_pressure;Samples;Min_cycle;Max_cycle;Signal;HPM_P1;HPM_P2
2022/05/24 00:00:54;;;;;;;7.00;3.15;;;;;;;18.61;65.89;100680.25;2109117;28;20040;-73
2022/05/24 00:02:17;;;;;;;6.80;3.30;;;;;;;18.66;65.68;100683.72;2104914;28;20073;-73
2022/05/24 00:03:40;;;;;;;7.05;3.08;;;;;;;18.67;65.53;100681.03;2110635;27;20091;-72
2022/05/24 00:05:01;;;;;;;6.25;4.15;;;;;;;18.68;65.67;100682.78;2111832;28;20040;-73
2022/05/24 00:06:27;;;;;;;7.90;3.80;;;;;;;18.69;65.58;100686.34;2104861;28;20048;-73
2022/05/24 00:07:50;;;;;;;6.95;3.15;;;;;;;18.69;65.51;100686.34;2105743;28;20044;-72
2022/05/24 00:09:13;;;;;;;5.82;3.33;;;;;;;18.66;65.53;100689.97;2109700;28;20055;-73
2022/05/24 00:10:36;;;;;;;8.07;4.25;;;;;;;18.64;65.48;100685.56;2110692;28;20094;-73
2022/05/24 00:11:59;;;;;;;7.05;3.22;;;;;;;18.61;65.45;100689.16;2110625;28;20055;-73
2022/05/24 00:13:23;;;;;;;7.57;3.13;;;;;;;18.58;65.58;100689.22;2110376;28;20310;-73
2022/05/24 00:16:25;;;;;;;8.88;3.88;;;;;;;18.49;65.76;100685.81;2112121;28;20090;-73
2022/05/24 00:17:50;;;;;;;6.53;3.40;;;;;;;18.47;65.78;100690.28;2106634;28;20039;-73
2022/05/24 00:19:13;;;;;;;7.28;3.05;;;;;;;18.48;65.82;100689.38;2102258;28;20085;-73
2022/05/24 00:20:36;;;;;;;6.97;4.05;;;;;;;18.49;65.57;100693.81;2104950;28;20126;-73
2022/05/24 00:22:00;;;;;;;8.45;3.15;;;;;;;18.51;65.33;100686.66;2110043;28;20050;-73
2022/05/24 00:23:25;;;;;;;6.38;3.28;;;;;;;18.52;65.13;100691.06;2104680;28;20060;-73
2022/05/24 00:24:46;;;;;;;12.18;4.10;;;;;;;18.50;65.14;100680.44;2103958;28;20040;-73
2022/05/24 00:26:11;;;;;;;5.65;2.97;;;;;;;18.50;65.08;100690.25;2109324;28;20434;-73
2022/05/24 00:27:32;;;;;;;7.75;3.33;;;;;;;18.48;65.11;100684.03;2117450;27;20153;-73
2022/05/24 00:28:55;;;;;;;6.45;2.75;;;;;;;18.49;65.17;100685.81;2112023;28;20043;-73
2022/05/24 00:30:17;;;;;;;6.85;3.35;;;;;;;18.49;65.33;100684.00;2108471;28;20136;-73
2022/05/24 00:31:40;;;;;;;10.00;3.42;;;;;;;18.50;65.40;100687.56;2110269;28;20580;-73
2022/05/24 00:33:02;;;;;;;8.10;3.00;;;;;;;18.50;65.47;100685.78;2110342;28;20048;-73
2022/05/24 00:34:24;;;;;;;;;;;;;;;18.51;65.51;100687.53;2110149;28;20048;-72
2022/05/24 00:35:47;;;;;;;8.65;3.45;;;;;;;18.52;65.39;100680.38;2109070;28;19920;-73
2022/05/24 00:37:10;;;;;;;7.47;3.15;;;;;;;18.52;65.33;100681.28;2110800;28;20044;-73
2022/05/24 00:38:36;;;;;;;5.95;3.30;;;;;;;18.52;65.46;100683.06;2112239;28;20723;-73
2022/05/24 00:39:57;;;;;;;6.43;3.25;;;;;;;18.52;65.46;100686.63;2112225;28;20052;-73
2022/05/24 00:41:25;;;;;;;9.38;3.08;;;;;;;18.55;65.22;100683.00;2111315;27;20530;-73
2022/05/24 00:42:50;;;;;;;8.23;3.40;;;;;;;18.53;65.12;100685.72;2111772;28;20559;-73
2022/05/24 00:44:21;;;;;;;7.43;3.53;;;;;;;18.50;65.04;100671.53;2111416;27;20031;-73
2022/05/24 00:45:49;;;;;;;6.18;3.13;;;;;;;18.47;65.19;100676.91;2112863;28;20584;-72
2022/05/24 00:47:16;;;;;;;7.10;3.25;;;;;;;18.47;65.21;100676.91;2111761;28;20662;-72
2022/05/24 00:48:45;;;;;;;7.43;3.60;;;;;;;18.45;65.20;100678.72;2111971;28;20036;-73
2022/05/24 00:50:11;;;;;;;6.93;3.17;;;;;;;18.43;65.48;100673.44;2113011;28;20076;-73
2022/05/24 00:51:38;;;;;;;7.28;3.00;;;;;;;18.42;65.41;100679.69;2104125;28;20056;-73
2022/05/24 00:53:05;;;;;;;4.68;2.90;;;;;;;18.40;65.31;100680.59;2119425;27;20054;-73
2022/05/24 00:54:27;;;;;;;8.70;3.10;;;;;;;18.35;65.48;100677.13;2113775;28;20096;-72
2022/05/24 00:55:51;;;;;;;5.28;3.20;;;;;;;18.34;65.42;100668.25;2120243;27;20383;-73
2022/05/24 00:57:26;;;;;;;9.57;3.65;;;;;;;18.36;65.57;100678.91;2112792;28;20058;-73
2022/05/24 00:58:54;;;;;;;6.93;3.35;;;;;;;18.40;65.35;100672.59;2103259;28;20040;-72
2022/05/24 01:00:19;;;;;;;6.82;3.33;;;;;;;18.41;65.41;100672.56;2110767;28;20566;-73
2022/05/24 01:01:43;;;;;;;6.38;3.45;;;;;;;18.40;64.99;100672.59;2113054;28;20042;-73
2022/05/24 01:03:07;;;;;;;8.20;3.35;;;;;;;18.34;65.26;100681.59;2113188;28;20380;-73
2022/05/24 01:04:28;;;;;;;6.30;3.40;;;;;;;18.26;65.40;100670.16;2103808;28;20251;-73
2022/05/24 01:05:51;;;;;;;6.72;3.50;;;;;;;18.19;65.52;100674.72;2103381;28;20071;-73
2022/05/24 01:07:13;;;;;;;7.50;3.50;;;;;;;18.16;65.63;100673.91;2105617;28;20088;-72
2022/05/24 01:08:36;;;;;;;8.07;3.08;;;;;;;18.18;65.70;100675.63;2103695;28;20040;-72
2022/05/24 01:10:02;;;;;;;8.35;2.97;;;;;;;18.22;65.55;100672.00;2103239;28;20139;-72
2022/05/24 01:11:24;;;;;;;8.02;3.78;;;;;;;18.24;65.41;100675.56;2112311;28;20044;-73
2022/05/24 01:12:53;;;;;;;6.35;3.28;;;;;;;18.27;65.24;100677.28;2111874;28;20427;-72
2022/05/24 01:14:17;;;;;;;9.55;3.47;;;;;;;18.27;65.16;100678.16;2106276;28;20078;-73
2022/05/24 01:15:43;;;;;;;6.40;3.92;;;;;;;18.29;64.94;100672.78;2105953;28;20052;-73
2022/05/24 01:17:06;;;;;;;5.30;2.65;;;;;;;18.28;65.17;100674.59;2112733;28;20081;-73
2022/05/24 01:18:28;;;;;;;10.00;3.85;;;;;;;18.28;65.18;100666.56;2112022;28;20062;-73
2022/05/24 01:19:50;;;;;;;6.53;3.83;;;;;;;18.29;64.92;100675.47;2109926;27;20071;-73
2022/05/24 01:21:15;;;;;;;6.32;3.03;;;;;;;18.25;64.96;100674.63;2114696;28;20055;-72
2022/05/24 01:23:07;;;;;;;7.32;3.53;;;;;;;18.23;65.05;100665.78;2111332;28;20054;-72
2022/05/24 01:24:38;;;;;;;7.15;3.95;;;;;;;18.23;65.02;100673.78;2112380;28;20043;-73
2022/05/24 01:26:11;;;;;;;8.93;3.60;;;;;;;18.22;65.05;100672.00;2112661;28;20173;-71
2022/05/24 01:27:36;;;;;;;9.45;4.07;;;;;;;18.21;65.22;100664.03;2113340;28;20044;-72
2022/05/24 01:29:01;;;;;;;6.63;3.42;;;;;;;18.23;65.11;100664.88;2111954;28;20079;-73
2022/05/24 01:30:23;;;;;;;7.75;3.63;;;;;;;18.22;65.16;100669.34;2110964;28;20046;-73
2022/05/24 01:36:46;;;;;;;6.18;2.95;;;;;;;17.99;65.48;100682.19;2097453;28;20891;-73
2022/05/24 01:38:10;;;;;;;6.45;3.30;;;;;;;17.95;65.45;100668.91;2112458;27;20054;-72
2022/05/24 01:39:34;;;;;;;6.82;3.20;;;;;;;17.92;65.64;100667.16;2114558;28;20047;-73
2022/05/24 01:40:56;;;;;;;7.80;3.33;;;;;;;17.94;65.59;100668.03;2120205;27;20075;-73
2022/05/24 01:42:19;;;;;;;6.07;4.00;;;;;;;17.94;65.56;100668.03;2107451;28;20040;-72
2022/05/24 01:43:43;;;;;;;8.18;3.50;;;;;;;17.96;65.85;100662.66;2106402;28;20134;-73
2022/05/24 01:45:11;;;;;;;7.20;3.22;;;;;;;17.97;65.69;100665.31;2110689;28;20043;-72
2022/05/24 01:46:36;;;;;;;9.55;3.78;;;;;;;18.01;65.64;100666.13;2104151;28;20424;-73
2022/05/24 01:48:03;;;;;;;5.32;3.05;;;;;;;18.01;65.55;100661.69;2107464;28;20043;-72
2022/05/24 01:49:28;;;;;;;6.70;2.88;;;;;;;17.99;65.69;100663.47;2112260;28;20040;-73
2022/05/24 01:50:54;;;;;;;6.50;2.90;;;;;;;17.99;65.75;100660.81;2110948;28;20105;-73
2022/05/24 01:52:24;;;;;;;6.05;3.20;;;;;;;18.02;65.84;100667.91;2112068;28;20064;-73
2022/05/24 01:53:50;;;;;;;7.82;3.63;;;;;;;18.01;65.77;100661.69;2111345;28;20524;-73
2022/05/24 01:55:19;;;;;;;5.13;3.10;;;;;;;18.01;65.68;100658.13;2111484;28;20083;-73
2022/05/24 01:56:48;;;;;;;8.68;3.40;;;;;;;17.97;65.54;100654.63;2112213;28;20511;-73
2022/05/24 01:58:14;;;;;;;9.07;3.30;;;;;;;18.00;65.51;100659.91;2114306;28;20052;-73
2022/05/24 01:59:39;;;;;;;7.68;3.60;;;;;;;18.00;65.35;100653.69;2114169;28;20172;-73
2022/05/24 02:01:09;;;;;;;7.97;3.25;;;;;;;17.98;65.44;100656.41;2110908;28;20058;-73
2022/05/24 02:02:34;;;;;;;5.93;2.85;;;;;;;17.95;65.40;100658.22;2108180;28;20058;-73
2022/05/24 02:03:57;;;;;;;6.82;3.22;;;;;;;17.92;65.56;100652.03;2111456;27;20151;-73
2022/05/24 02:05:31;;;;;;;10.07;3.00;;;;;;;17.95;65.62;100658.22;2114309;28;20101;-72
2022/05/24 02:07:02;;;;;;;6.32;2.85;;;;;;;17.94;65.73;100649.31;2113227;28;20050;-73
2022/05/24 02:08:28;;;;;;;6.82;3.42;;;;;;;17.94;65.74;100654.66;2105488;28;20052;-72
2022/05/24 02:09:53;;;;;;;10.13;3.58;;;;;;;17.97;65.74;100653.75;2097266;28;20143;-73
2022/05/24 02:11:18;;;;;;;6.13;3.35;;;;;;;17.99;65.58;100654.59;2097069;28;20048;-73
2022/05/24 02:12:46;;;;;;;9.98;4.63;;;;;;;18.00;65.40;100651.91;2109444;28;20403;-72
2022/05/24 02:14:15;;;;;;;7.78;4.45;;;;;;;17.97;65.42;100651.97;2111434;28;20854;-73
2022/05/24 02:15:44;;;;;;;6.65;3.08;;;;;;;17.94;65.47;100646.66;2111450;28;20117;-73
2022/05/24 02:17:12;;;;;;;6.78;2.83;;;;;;;17.91;65.62;100652.94;2103891;28;20040;-73
2022/05/24 02:18:38;;;;;;;7.30;3.22;;;;;;;17.91;65.69;100652.94;2110660;28;20051;-73
2022/05/24 02:20:04;;;;;;;7.30;3.25;;;;;;;17.92;65.61;100649.34;2112046;28;20047;-73
2022/05/24 02:21:27;;;;;;;10.18;3.17;;;;;;;17.92;65.68;100651.13;2111905;28;20055;-73
2022/05/24 02:22:49;;;;;;;7.40;3.08;;;;;;;17.90;65.54;100650.31;2109125;28;20085;-73
2022/05/24 02:24:21;;;;;;;4.85;3.00;;;;;;;17.90;65.72;100644.97;2109211;28;20602;-73
2022/05/24 02:25:47;;;;;;;6.28;3.22;;;;;;;17.90;65.76;100644.97;2111920;28;20081;-73
2022/05/24 02:27:10;;;;;;;14.40;3.53;;;;;;;17.92;65.67;100651.13;2094975;28;20483;-73
2022/05/24 02:28:33;;;;;;;5.88;3.67;;;;;;;17.92;65.63;100649.34;2103158;28;20032;-72
2022/05/24 02:29:57;;;;;;;7.18;4.13;;;;;;;17.93;65.62;100652.91;2103048;28;20079;-73
2022/05/24 02:31:22;;;;;;;5.28;3.08;;;;;;;17.95;65.69;100652.88;2111199;28;20365;-72
2022/05/24 02:32:45;;;;;;;6.63;3.13;;;;;;;17.95;65.66;100652.88;2105282;28;20502;-73
2022/05/24 02:34:07;;;;;;;10.00;2.97;;;;;;;17.94;65.59;100660.00;2110854;27;20054;-73
2022/05/24 02:35:29;;;;;;;7.65;3.35;;;;;;;17.93;65.57;100660.91;2105419;28;20527;-72
2022/05/24 02:36:51;;;;;;;5.47;3.58;;;;;;;17.88;65.64;100668.13;2111078;28;20046;-72
2022/05/24 02:38:13;;;;;;;6.70;3.40;;;;;;;17.83;65.76;100661.97;2105749;28;20064;-73
2022/05/24 02:41:28;;;;;;;6.55;3.13;;;;;;;17.82;65.82;100662.88;2102192;28;20064;-72
2022/05/24 02:41:31;;;;;;;5.93;3.05;;;;;;;17.80;65.86;100664.69;2105088;28;20150;-73
2022/05/24 02:42:53;;;;;;;9.90;3.28;;;;;;;17.80;65.77;100667.34;2110647;28;20039;-73
2022/05/24 02:44:18;;;;;;;7.22;3.10;;;;;;;17.80;65.74;100668.25;2110260;28;20444;-72
2022/05/24 02:45:40;;;;;;;6.43;3.13;;;;;;;17.78;65.66;100666.53;2111199;28;20514;-73
2022/05/24 02:47:05;;;;;;;5.78;3.35;;;;;;;17.77;65.61;100665.63;2110064;28;20040;-72
2022/05/24 02:48:26;;;;;;;7.28;3.20;;;;;;;17.75;65.69;100669.22;2105492;28;20081;-73
2022/05/24 02:49:49;;;;;;;6.95;3.05;;;;;;;17.75;65.85;100669.22;2102720;28;20048;-72
2022/05/24 02:51:13;;;;;;;5.60;2.72;;;;;;;17.75;65.94;100680.78;2102578;28;20040;-73
2022/05/24 02:52:36;;;;;;;6.32;2.75;;;;;;;17.76;66.06;100674.56;2106623;28;20056;-72
2022/05/24 02:53:59;;;;;;;6.50;3.55;;;;;;;17.78;66.08;100674.53;2110286;28;20075;-73
2022/05/24 02:55:20;;;;;;;5.90;3.20;;;;;;;17.80;65.99;100676.25;2110808;28;20050;-72
2022/05/24 02:56:44;;;;;;;9.88;3.10;;;;;;;17.82;65.97;100684.25;2102722;28;20040;-72
2022/05/24 02:58:06;;;;;;;6.68;3.22;;;;;;;17.82;65.97;100689.59;2108695;28;20526;-73
2022/05/24 02:59:28;;;;;;;9.20;3.05;;;;;;;17.77;66.09;100700.34;2110461;28;20044;-72
2022/05/24 03:00:50;;;;;;;5.25;2.42;;;;;;;17.72;66.12;100696.84;2109926;28;20051;-73
2022/05/24 03:02:14;;;;;;;7.10;2.90;;;;;;;17.68;66.20;100691.56;2104777;28;20555;-73
2022/05/24 03:03:35;;;;;;;6.00;3.00;;;;;;;17.69;66.33;100693.34;2116975;27;20493;-73
2022/05/24 03:04:58;;;;;;;8.07;3.10;;;;;;;17.73;66.38;100695.94;2109077;28;20372;-73
2022/05/24 03:06:23;;;;;;;5.13;2.97;;;;;;;17.80;66.17;100700.28;2110024;28;20100;-73
2022/05/24 03:09:36;;;;;;;6.82;3.15;;;;;;;17.89;65.87;100720.66;2113662;28;20233;-73
2022/05/24 03:10:59;;;;;;;7.65;2.80;;;;;;;17.88;65.62;100718.88;2111736;27;20043;-72
2022/05/24 03:15:43;;;;;;;5.85;3.22;;;;;;;17.65;65.83;100740.59;2096878;28;20083;-72
2022/05/24 03:17:06;;;;;;;5.65;3.17;;;;;;;17.62;65.75;100747.72;2102480;28;20044;-72
2022/05/24 03:18:31;;;;;;;6.70;3.42;;;;;;;17.58;65.78;100744.22;2104422;28;20044;-74
2022/05/24 03:19:54;;;;;;;4.97;2.92;;;;;;;17.52;65.94;100747.81;2105147;28;20557;-72
2022/05/24 03:21:15;;;;;;;8.00;3.53;;;;;;;17.56;66.14;100759.34;2109986;28;20039;-72
2022/05/24 03:22:38;;;;;;;6.40;3.50;;;;;;;17.58;66.16;100759.34;2108802;28;20065;-72
2022/05/24 03:24:02;;;;;;;7.65;3.28;;;;;;;17.61;66.23;100756.63;2110283;28;20134;-72
2022/05/24 03:25:25;;;;;;;5.50;2.67;;;;;;;17.69;66.38;100755.66;2102365;28;20040;-72
2022/05/24 03:26:48;;;;;;;7.93;4.30;;;;;;;17.80;66.32;100767.06;2105270;28;20051;-72
2022/05/24 03:28:10;;;;;;;8.75;3.90;;;;;;;17.89;66.35;100771.41;2109852;28;20805;-72
2022/05/24 03:29:33;;;;;;;6.53;3.08;;;;;;;17.98;66.20;100768.59;2110707;28;20085;-72
2022/05/24 03:30:54;;;;;;;7.90;3.15;;;;;;;18.08;66.19;100769.31;2104498;28;20039;-73
2022/05/24 03:32:18;;;;;;;;;;;;;;;18.16;65.95;100773.66;2094644;28;20261;-73
2022/05/24 03:33:43;;;;;;;8.15;3.85;;;;;;;18.25;65.92;100775.28;2101969;28;19946;-73
2022/05/24 03:35:08;;;;;;;7.40;2.92;;;;;;;18.36;65.88;100777.81;2094113;28;20052;-73
2022/05/24 03:36:31;;;;;;;8.25;3.35;;;;;;;18.46;65.88;100774.06;2108531;28;20043;-73
2022/05/24 03:37:52;;;;;;;6.93;3.55;;;;;;;18.54;65.76;100773.03;2110795;28;20142;-73
2022/05/24 03:39:15;;;;;;;6.57;3.42;;;;;;;18.64;65.80;100777.34;2109870;28;20153;-72
2022/05/24 03:40:36;;;;;;;6.60;3.17;;;;;;;18.76;65.67;100784.28;2113485;28;20047;-72
2022/05/24 03:41:59;;;;;;;7.68;2.55;;;;;;;18.87;65.72;100784.09;2101900;28;20081;-73
2022/05/24 03:43:22;;;;;;;5.85;2.58;;;;;;;18.97;65.56;100793.72;2104965;28;20074;-74
2022/05/24 03:44:44;;;;;;;9.35;2.58;;;;;;;19.04;65.38;100785.53;2101779;28;20069;-72
2022/05/24 03:46:09;;;;;;;6.10;3.00;;;;;;;19.10;64.97;100780.06;2107977;28;20073;-73
2022/05/24 03:47:30;;;;;;;11.50;2.90;;;;;;;19.17;64.79;100780.84;2111077;28;20222;-73
2022/05/24 03:48:55;;;;;;;4.07;2.55;;;;;;;19.24;64.94;100781.59;2110296;28;20113;-72
2022/05/24 03:50:17;;;;;;;5.18;2.90;;;;;;;19.28;64.68;100778.84;2110749;28;20047;-72
2022/05/24 03:51:40;;;;;;;9.82;2.88;;;;;;;19.34;64.81;100784.06;2104299;28;20055;-73
2022/05/24 03:53:01;;;;;;;5.72;2.70;;;;;;;19.43;64.69;100780.31;2102329;28;20048;-72
2022/05/24 03:54:24;;;;;;;7.65;2.72;;;;;;;19.52;64.57;100772.13;2110122;27;20058;-72
2022/05/24 03:55:47;;;;;;;4.82;3.00;;;;;;;19.64;64.30;100771.88;2104860;28;20048;-73
2022/05/24 03:59:00;;;;;;;7.78;3.03;;;;;;;19.88;64.12;100766.00;2087834;28;20106;-73
2022/05/24 04:00:23;;;;;;;10.05;3.25;;;;;;;20.04;64.28;100765.63;2085994;28;20072;-72
2022/05/24 04:01:46;;;;;;;5.00;2.63;;;;;;;20.17;64.10;100769.78;2110577;28;20043;-73
2022/05/24 04:03:10;;;;;;;7.93;3.10;;;;;;;20.31;63.89;100770.34;2110816;28;20146;-72
2022/05/24 04:04:34;;;;;;;8.73;3.03;;;;;;;20.46;63.80;100775.38;2112387;28;20414;-72
2022/05/24 04:05:57;;;;;;;9.57;3.50;;;;;;;20.63;63.77;100773.13;2119138;27;20142;-72
2022/05/24 04:07:20;;;;;;;6.85;2.80;;;;;;;20.77;63.62;100775.47;2104213;28;20044;-73
2022/05/24 04:08:45;;;;;;;7.28;3.08;;;;;;;20.88;63.32;100781.41;2107976;28;20042;-72
2022/05/24 04:10:10;;;;;;;6.82;2.80;;;;;;;21.00;63.48;100782.91;2102036;28;20515;-72
2022/05/24 04:11:34;;;;;;;4.40;2.67;;;;;;;21.04;63.29;100781.91;2101627;28;20655;-73
2022/05/24 04:12:56;;;;;;;9.00;3.33;;;;;;;21.10;63.61;100784.41;2102474;28;20151;-72
2022/05/24 04:14:19;;;;;;;9.30;3.65;;;;;;;21.21;63.62;100779.66;2107224;28;20035;-73
2022/05/24 04:15:41;;;;;;;7.32;2.50;;;;;;;21.37;63.36;100786.38;2102138;28;20786;-73
2022/05/24 04:17:03;;;;;;;6.63;3.00;;;;;;;21.52;63.18;100785.06;2107826;28;20066;-72
2022/05/24 04:18:26;;;;;;;8.23;2.88;;;;;;;21.68;62.95;100782.78;2104905;28;20044;-73
2022/05/24 04:19:50;;;;;;;6.57;3.65;;;;;;;21.86;62.50;100783.13;2102293;28;20048;-73
2022/05/24 04:21:14;;;;;;;5.97;2.83;;;;;;;21.99;61.85;100789.03;2110592;28;20044;-73
2022/05/24 04:22:35;;;;;;;7.35;3.10;;;;;;;22.13;61.64;100786.78;2110696;28;20040;-72
2022/05/24 04:23:58;;;;;;;8.85;3.35;;;;;;;22.30;61.13;100788.06;2108801;28;21639;-73
2022/05/24 04:25:22;;;;;;;11.18;3.13;;;;;;;22.43;60.77;100779.56;2102384;28;20060;-73
2022/05/24 04:26:44;;;;;;;6.88;2.60;;;;;;;22.58;60.45;100781.72;2094228;28;20041;-73
2022/05/24 04:28:07;;;;;;;9.23;2.88;;;;;;;22.78;60.17;100780.19;2099288;28;20047;-72
2022/05/24 04:29:30;;;;;;;5.85;2.90;;;;;;;22.94;59.71;100779.63;2110376;28;20050;-73
2022/05/24 04:30:54;;;;;;;11.70;2.72;;;;;;;23.14;59.47;100788.81;2108275;28;20046;-72
2022/05/24 04:32:16;;;;;;;4.60;1.98;;;;;;;23.27;59.05;100777.53;2110513;28;20047;-73
2022/05/24 04:33:39;;;;;;;9.75;3.03;;;;;;;23.40;58.67;100777.97;2113223;28;20047;-73
2022/05/24 04:35:02;;;;;;;10.85;2.65;;;;;;;23.58;58.36;100773.72;2113242;28;20048;-73
2022/05/24 04:36:26;;;;;;;7.97;2.50;;;;;;;23.76;57.87;100779.31;2103729;28;20052;-72
2022/05/24 04:37:48;;;;;;;8.32;2.42;;;;;;;23.93;57.43;100777.78;2099419;28;20077;-73
2022/05/24 04:39:15;;;;;;;6.38;2.40;;;;;;;24.09;56.95;100776.25;2110967;28;20056;-72
2022/05/24 04:42:21;;;;;;;7.22;2.70;;;;;;;24.44;55.89;100791.91;2096537;28;20053;-72
2022/05/24 04:43:43;;;;;;;9.68;3.10;;;;;;;24.63;55.50;100784.81;2103474;28;20439;-73
2022/05/24 04:45:08;;;;;;;6.53;2.60;;;;;;;24.82;54.93;100773.22;2110022;28;20047;-73
2022/05/24 04:47:06;;;;;;;10.85;2.85;;;;;;;25.05;54.63;100780.38;2102226;28;20114;-73
2022/05/24 04:48:14;;;;;;;7.88;2.70;;;;;;;25.30;53.92;100783.72;2106091;28;20044;-73
2022/05/24 04:49:38;;;;;;;8.13;2.75;;;;;;;25.53;53.47;100778.19;2109696;28;20139;-72
2022/05/24 04:51:02;;;;;;;7.38;3.35;;;;;;;25.80;53.33;100781.44;2109368;28;20059;-72
2022/05/24 04:52:28;;;;;;;6.05;2.78;;;;;;;26.07;52.58;100780.13;2112777;28;20573;-73
2022/05/24 04:53:49;;;;;;;10.23;2.67;;;;;;;26.32;52.27;100773.56;2107737;28;20051;-73
2022/05/24 04:55:14;;;;;;;9.82;2.80;;;;;;;26.58;51.80;100776.72;2115136;28;20048;-73
2022/05/24 04:56:35;;;;;;;7.45;2.80;;;;;;;26.87;50.83;100775.22;2110547;28;20051;-73
2022/05/24 04:57:58;;;;;;;7.25;3.10;;;;;;;27.13;49.87;100779.31;2108938;28;20050;-73
2022/05/24 04:59:19;;;;;;;7.85;2.60;;;;;;;27.35;48.86;100777.25;2109899;28;20056;-73
2022/05/24 05:00:42;;;;;;;7.53;2.25;;;;;;;27.60;48.42;100770.50;2104668;28;20436;-73
2022/05/24 05:02:05;;;;;;;6.38;2.42;;;;;;;27.86;47.62;100782.63;2108375;28;20047;-72
2022/05/24 05:03:28;;;;;;;6.53;2.40;;;;;;;28.12;47.15;100788.34;2118728;28;20078;-73
2022/05/24 05:04:51;;;;;;;7.82;2.65;;;;;;;28.36;46.38;100788.81;2112972;28;20091;-73
2022/05/24 05:06:17;;;;;;;9.18;2.47;;;;;;;28.57;45.95;100791.25;2112473;28;20446;-73
2022/05/24 05:07:40;;;;;;;6.38;2.30;;;;;;;28.76;45.46;100790.09;2110600;28;20527;-71
2022/05/24 05:09:03;;;;;;;10.90;2.80;;;;;;;28.97;45.01;100797.94;2113101;28;20043;-71
2022/05/24 05:10:26;;;;;;;5.25;2.20;;;;;;;29.17;44.45;100795.78;2110293;28;20130;-72
2022/05/24 05:11:49;;;;;;;7.70;2.50;;;;;;;29.34;43.68;100804.81;2110037;28;20112;-72
2022/05/24 05:13:12;;;;;;;8.70;2.40;;;;;;;29.46;42.92;100801.31;2110196;28;20059;-72
2022/05/24 05:14:36;;;;;;;4.65;2.60;;;;;;;29.60;42.75;100798.63;2109170;28;20100;-72
2022/05/24 05:16:06;;;;;;;7.10;2.72;;;;;;;29.80;42.11;100806.38;2109335;28;20529;-72
2022/05/24 05:17:29;;;;;;;6.65;2.55;;;;;;;29.96;41.57;100803.59;2100391;28;20052;-72
2022/05/24 05:18:51;;;;;;;4.50;2.40;;;;;;;30.11;41.51;100816.22;2113359;28;20040;-72
2022/05/24 05:20:14;;;;;;;5.72;2.10;;;;;;;30.29;40.93;100814.13;2111384;28;20069;-72
2022/05/24 05:21:41;;;;;;;9.73;2.50;;;;;;;30.45;40.72;100809.44;2113181;28;20071;-71
2022/05/24 05:23:04;;;;;;;7.90;2.33;;;;;;;30.59;40.43;100808.56;2110666;28;20080;-72
2022/05/24 05:24:26;;;;;;;7.28;2.28;;;;;;;30.71;40.12;100810.47;2109823;28;20063;-72
2022/05/24 05:25:49;;;;;;;11.40;3.22;;;;;;;30.83;39.47;100812.34;2109894;28;20421;-72
2022/05/24 05:27:12;;;;;;;9.57;2.30;;;;;;;30.95;39.51;100814.22;2110271;28;20052;-72
2022/05/24 05:28:35;;;;;;;6.13;2.03;;;;;;;31.10;38.96;100815.06;2111700;28;20674;-73
2022/05/24 05:31:36;;;;;;;5.00;2.40;;;;;;;31.40;38.58;100822.97;2105721;28;20683;-72
2022/05/24 05:32:58;;;;;;;7.82;2.17;;;;;;;31.40;38.36;100826.56;2105716;28;20146;-73
2022/05/24 05:34:23;;;;;;;10.52;2.35;;;;;;;31.44;37.99;100829.97;2099262;28;20036;-72
2022/05/24 05:35:47;;;;;;;6.68;2.40;;;;;;;31.56;37.81;100830.00;2103940;28;20104;-72
2022/05/24 05:37:12;;;;;;;5.05;2.45;;;;;;;31.64;37.36;100830.31;2115132;27;20036;-73
2022/05/24 05:38:36;;;;;;;5.88;2.13;;;;;;;31.74;37.09;100821.50;2106989;27;20040;-73
2022/05/24 05:40:01;;;;;;;7.30;2.20;;;;;;;31.86;37.05;100826.94;2111537;28;20587;-72
2022/05/24 05:41:26;;;;;;;10.35;2.10;;;;;;;31.99;36.40;100822.34;2103057;28;20055;-73
2022/05/24 05:42:49;;;;;;;7.00;2.45;;;;;;;32.09;36.16;100825.28;2106914;28;20506;-72
2022/05/24 05:44:11;;;;;;;6.03;2.45;;;;;;;32.23;36.07;100825.16;2113755;27;20530;-73
2022/05/24 05:45:33;;;;;;;9.25;2.70;;;;;;;32.35;35.89;100821.53;2099298;28;20047;-73
2022/05/24 05:46:55;;;;;;;6.38;1.98;;;;;;;32.44;35.75;100825.44;2107778;28;20070;-72
2022/05/24 05:48:18;;;;;;;4.88;2.20;;;;;;;32.54;35.42;100822.91;2103443;28;20048;-72
2022/05/24 05:49:41;;;;;;;5.47;2.20;;;;;;;32.64;35.08;100821.19;2108519;27;20040;-73
2022/05/24 05:51:05;;;;;;;6.95;2.40;;;;;;;32.70;34.88;100820.75;2120301;27;20074;-73
2022/05/24 05:52:30;;;;;;;3.65;2.00;;;;;;;32.72;34.40;100821.53;2111901;27;20047;-72
2022/05/24 05:53:52;;;;;;;4.30;1.90;;;;;;;32.73;34.41;100820.53;2106805;28;20495;-74
2022/05/24 05:55:16;;;;;;;6.85;2.03;;;;;;;32.77;33.95;100822.91;2114429;27;20047;-73
2022/05/24 05:56:42;;;;;;;6.88;2.00;;;;;;;32.78;33.37;100816.47;2102546;28;20521;-73
2022/05/24 05:58:05;;;;;;;6.43;2.00;;;;;;;32.82;33.41;100814.38;2103679;28;20499;-72
2022/05/24 05:59:28;;;;;;;5.05;2.10;;;;;;;32.95;33.54;100811.59;2116741;27;20051;-73
2022/05/24 06:00:49;;;;;;;6.82;2.08;;;;;;;33.02;33.38;100810.09;2108760;28;20043;-74
2022/05/24 06:02:12;;;;;;;6.63;2.42;;;;;;;33.04;33.46;100813.59;2109742;28;20047;-74
2022/05/24 06:03:34;;;;;;;6.18;2.13;;;;;;;33.09;33.08;100823.19;2118463;27;20047;-74
2022/05/24 06:04:58;;;;;;;5.47;2.05;;;;;;;33.15;32.84;100819.97;2115487;27;20047;-74
2022/05/24 06:06:25;;;;;;;6.22;2.05;;;;;;;33.19;32.78;100815.19;2109983;28;20068;-73
2022/05/24 06:07:49;;;;;;;8.00;2.05;;;;;;;33.29;32.98;100816.19;2110311;28;20043;-73
2022/05/24 06:09:12;;;;;;;4.25;2.00;;;;;;;33.38;32.43;100820.09;2094809;28;20551;-74
2022/05/24 06:10:35;;;;;;;5.75;2.35;;;;;;;33.41;32.55;100815.22;2114913;27;20436;-73
2022/05/24 06:11:57;;;;;;;12.20;3.28;;;;;;;33.48;32.84;100818.34;2112192;28;20381;-73
2022/05/24 06:13:19;;;;;;;7.70;2.13;;;;;;;33.40;33.41;100818.97;2105826;28;20039;-72
2022/05/24 06:14:42;;;;;;;15.82;2.05;;;;;;;33.36;33.95;100813.84;2105684;28;20132;-74
2022/05/24 06:16:05;;;;;;;6.10;2.00;;;;;;;33.38;33.87;100807.25;2107024;28;20491;-73
2022/05/24 06:17:27;;;;;;;7.38;2.20;;;;;;;33.31;34.08;100816.06;2108624;28;20062;-73
2022/05/24 06:18:50;;;;;;;5.13;1.95;;;;;;;33.25;34.22;100811.09;2111297;28;20040;-74
2022/05/24 06:20:17;;;;;;;6.00;2.10;;;;;;;33.16;34.54;100812.63;2114230;28;20465;-73
2022/05/24 06:21:39;;;;;;;7.28;2.40;;;;;;;33.00;34.60;100812.09;2109775;27;20043;-73
2022/05/24 06:23:04;;;;;;;7.55;2.03;;;;;;;32.83;35.12;100816.97;2109294;28;21129;-74
2022/05/24 06:24:27;;;;;;;10.82;2.78;;;;;;;32.70;35.48;100810.69;2110993;28;20048;-73
2022/05/24 06:25:49;;;;;;;7.13;2.40;;;;;;;32.53;35.79;100819.28;2103222;28;20504;-74
2022/05/24 06:27:12;;;;;;;8.35;2.15;;;;;;;32.37;36.33;100818.66;2110445;28;20516;-74
2022/05/24 06:28:34;;;;;;;10.85;2.47;;;;;;;32.22;36.84;100814.38;2110498;28;20044;-73
2022/05/24 06:29:56;;;;;;;6.43;2.10;;;;;;;32.15;37.15;100818.53;2110897;28;20124;-73
2022/05/24 06:31:19;;;;;;;10.07;2.13;;;;;;;32.06;37.05;100817.31;2105284;28;20056;-73
2022/05/24 06:32:41;;;;;;;8.20;1.90;;;;;;;31.93;37.39;100821.91;2109421;28;20040;-74
2022/05/24 06:34:06;;;;;;;7.38;2.80;;;;;;;31.83;37.43;100820.84;2107248;28;20113;-73
2022/05/24 06:35:27;;;;;;;5.90;2.13;;;;;;;31.79;37.34;100820.16;2106113;28;20067;-72
2022/05/24 06:36:49;;;;;;;4.88;2.20;;;;;;;31.71;37.40;100827.16;2111628;28;20047;-73
2022/05/24 06:38:12;;;;;;;10.00;2.53;;;;;;;31.56;37.59;100823.66;2113374;27;20390;-73
2022/05/24 06:39:35;;;;;;;10.52;2.28;;;;;;;31.45;37.79;100827.13;2108841;28;20135;-72
2022/05/24 06:40:57;;;;;;;6.72;2.35;;;;;;;31.38;37.67;100825.78;2110128;28;20057;-72
2022/05/24 06:42:20;;;;;;;9.32;2.03;;;;;;;31.36;37.89;100830.50;2117715;27;20055;-72
2022/05/24 06:43:42;;;;;;;6.85;2.35;;;;;;;31.25;38.02;100838.53;2119723;27;20035;-72
2022/05/24 06:45:06;;;;;;;8.75;2.10;;;;;;;31.10;37.97;100839.63;2118131;27;20059;-73
2022/05/24 06:46:29;;;;;;;10.15;4.18;;;;;;;31.02;38.33;100840.13;2100401;28;20040;-72
2022/05/24 06:47:51;;;;;;;6.65;2.10;;;;;;;31.02;38.26;100845.56;2105796;28;20117;-73